Lawncrest, Pennsylvania
Current Conditions -  °F | °C
As of 6:54 PM on Saturday 22 Nov 2014 (Local Time) from KPNE Reporting Station
Overcast Overcast  
Wind Chill: 39°   Ceiling: 9000
Heat Index: 45°   Visibility: 10mi
Dew Point: 18°   Wind: 12mph
Humidity: 34%   Direction: 220°SW
Pressure: 30.3"   Gusts: NA
Location:  40.063°N, 75.0797°W
Report Text: KPNE 222354Z AUTO 22010KT 10SM BKN090 OVC110 07/M08 A3030 RMK AO2 SLP260 60000 T00721078 10078 20061 58007 TSNO
Loading
Personal Weather Stations






























Interactive Weather Map New forecast layout! Learn more

10-Day Weather Forecast

Advertisements
Track Severe Weather on mobile